Terminal Aerodrome Forecast
Issued by NWS

Current Version | Previous Version | Text Only | Print | Product List | Glossary On
Versions: 1 2 3 4 5 6 7 8 9 10 11 12 13 14
000
FTUS42 KGSP 252335
TAFAND
TAF
KAND 252335Z 2600/2624 15007KT P6SM VCSH BKN060
     FM260600 15005KT P6SM VCTS OVC029CB
     FM260900 15005KT P6SM VCTS OVC017CB
     FM261200 14005KT 4SM BR VCSH OVC010
     FM261400 16005KT P6SM VCTS BKN013 OVC025CB
     FM261700 17006KT P6SM OVC035 PROB30 2618/2624 4SM TSRA
      OVC025CB=

USA.gov is the U.S. government's official web portal to all federal, state and local government web resources and services.